createdAt,value
2023-03-31T00:02:14.430Z,11.30
2023-03-31T00:04:46.627Z,11.30
2023-03-31T00:07:20.405Z,11.30
2023-03-31T00:09:56.499Z,11.30
2023-03-31T00:12:35.895Z,11.30
2023-03-31T00:15:10.519Z,11.30
2023-03-31T00:17:43.472Z,11.30
2023-03-31T00:20:19.940Z,11.30
2023-03-31T00:22:49.811Z,11.30
2023-03-31T00:25:22.461Z,11.30
2023-03-31T00:27:53.115Z,11.30
2023-03-31T00:30:30.688Z,11.30
2023-03-31T00:33:02.062Z,11.20
2023-03-31T00:35:36.601Z,11.20
2023-03-31T00:38:06.067Z,11.20
2023-03-31T00:40:37.826Z,11.20
2023-03-31T00:43:12.179Z,11.20
2023-03-31T00:45:47.366Z,11.20
2023-03-31T00:48:20.587Z,11.10
2023-03-31T00:50:59.615Z,11.10
2023-03-31T00:53:34.782Z,11.10
2023-03-31T00:56:11.957Z,11.00
2023-03-31T00:58:54.233Z,11.00
2023-03-31T01:01:25.048Z,11.00
2023-03-31T01:03:52.590Z,11.00
2023-03-31T01:06:25.966Z,10.90
2023-03-31T01:08:53.383Z,10.90
2023-03-31T01:11:24.943Z,10.90
2023-03-31T01:13:58.177Z,10.90
2023-03-31T01:16:32.265Z,10.90
2023-03-31T01:19:03.546Z,10.80
2023-03-31T01:22:00.032Z,10.80
2023-03-31T01:25:08.327Z,10.80
2023-03-31T01:27:58.899Z,10.80
2023-03-31T01:30:52.915Z,10.70
2023-03-31T01:33:25.301Z,10.70
2023-03-31T01:36:06.039Z,10.70
2023-03-31T01:38:40.264Z,10.70
2023-03-31T01:41:13.537Z,10.70
2023-03-31T01:43:48.768Z,10.70
2023-03-31T01:46:21.933Z,10.70
2023-03-31T01:48:51.790Z,10.80
2023-03-31T01:51:24.553Z,10.70
2023-03-31T01:53:59.016Z,10.80
2023-03-31T01:56:30.813Z,10.80
2023-03-31T01:59:10.499Z,10.80
2023-03-31T02:01:47.906Z,10.80
2023-03-31T02:04:21.199Z,10.80
2023-03-31T02:06:56.368Z,10.80
2023-03-31T02:09:30.602Z,10.80
2023-03-31T02:12:05.823Z,10.80
2023-03-31T02:14:33.672Z,10.80
2023-03-31T02:17:02.496Z,10.70
2023-03-31T02:19:39.769Z,10.80
2023-03-31T02:22:09.753Z,10.80
2023-03-31T02:24:40.396Z,10.80
2023-03-31T02:27:11.146Z,10.80
2023-03-31T02:29:39.171Z,10.80
2023-03-31T02:32:24.378Z,10.80
2023-03-31T02:34:54.525Z,10.80
2023-03-31T02:37:26.946Z,10.80
2023-03-31T02:39:58.198Z,10.80
2023-03-31T02:42:25.727Z,10.80
2023-03-31T02:44:53.162Z,10.80
2023-03-31T02:47:22.761Z,10.90
2023-03-31T02:49:55.046Z,10.80
2023-03-31T02:52:37.926Z,10.90
2023-03-31T02:55:08.070Z,10.90
2023-03-31T02:57:38.306Z,10.90
2023-03-31T03:00:09.463Z,10.90
2023-03-31T03:02:54.981Z,10.90
2023-03-31T03:05:26.105Z,10.90
2023-03-31T03:08:21.131Z,10.90
2023-03-31T03:10:51.018Z,10.90
2023-03-31T03:13:42.234Z,10.90
2023-03-31T03:16:19.450Z,10.90
2023-03-31T03:19:02.297Z,10.90
2023-03-31T03:21:36.018Z,10.90
2023-03-31T03:27:00.194Z,10.90
2023-03-31T03:29:33.239Z,10.90
2023-03-31T03:32:00.325Z,10.90
2023-03-31T03:34:30.147Z,10.90
2023-03-31T03:37:01.150Z,10.90
2023-03-31T03:39:31.300Z,10.90
2023-03-31T03:42:07.483Z,10.90
2023-03-31T03:44:38.978Z,10.90
2023-03-31T03:47:08.831Z,11.00
2023-03-31T03:49:38.635Z,11.00
2023-03-31T03:52:05.919Z,11.00
2023-03-31T03:54:48.341Z,11.00
2023-03-31T03:57:20.079Z,11.00
2023-03-31T03:59:47.625Z,11.00
2023-03-31T04:02:19.223Z,11.00
2023-03-31T04:04:49.112Z,11.00
2023-03-31T04:07:19.560Z,11.00
2023-03-31T04:09:51.950Z,11.00
2023-03-31T04:12:21.471Z,11.00
2023-03-31T04:14:48.471Z,11.00
2023-03-31T04:17:17.900Z,11.00
2023-03-31T04:19:50.952Z,10.90
2023-03-31T04:22:23.069Z,10.90
2023-03-31T04:28:58.755Z,10.90
2023-03-31T04:31:26.475Z,10.80
2023-03-31T04:34:01.197Z,10.90
2023-03-31T04:36:30.172Z,10.80
2023-03-31T04:39:01.170Z,10.90
2023-03-31T04:41:30.667Z,10.80
2023-03-31T04:43:59.599Z,10.80
2023-03-31T04:46:29.795Z,10.80
2023-03-31T04:48:57.237Z,10.80
2023-03-31T04:51:24.203Z,10.80
2023-03-31T04:53:51.208Z,10.80
2023-03-31T04:56:18.303Z,10.80
2023-03-31T04:58:47.534Z,10.80
2023-03-31T05:01:23.872Z,10.80
2023-03-31T05:03:52.413Z,10.80
2023-03-31T05:06:28.086Z,10.80
2023-03-31T05:08:55.271Z,10.70
2023-03-31T05:11:22.972Z,10.70
2023-03-31T05:13:49.980Z,10.70
2023-03-31T05:16:17.532Z,10.70
2023-03-31T05:18:46.716Z,10.70
2023-03-31T05:21:17.469Z,10.70
2023-03-31T05:26:28.309Z,10.70
2023-03-31T05:28:57.674Z,10.70
2023-03-31T05:31:24.806Z,10.70
2023-03-31T05:33:54.771Z,10.70
2023-03-31T05:36:37.814Z,10.80
2023-03-31T05:39:05.528Z,10.80
2023-03-31T05:41:34.279Z,10.90
2023-03-31T05:44:02.349Z,11.00
2023-03-31T05:46:35.402Z,11.00
2023-03-31T05:49:05.851Z,11.10
2023-03-31T05:51:33.152Z,11.10
2023-03-31T05:54:01.069Z,11.10
2023-03-31T05:56:33.105Z,11.10
2023-03-31T05:59:09.553Z,11.10
2023-03-31T06:01:37.087Z,11.10
2023-03-31T06:04:08.896Z,11.00
2023-03-31T06:06:41.193Z,11.00
2023-03-31T06:09:17.377Z,10.90
2023-03-31T06:11:53.435Z,10.90
2023-03-31T06:14:28.883Z,10.90
2023-03-31T06:16:59.735Z,10.90
2023-03-31T06:19:30.248Z,10.90
2023-03-31T06:22:00.987Z,10.90
2023-03-31T06:24:36.128Z,11.00
2023-03-31T06:27:04.198Z,11.00
2023-03-31T06:29:36.975Z,11.00
2023-03-31T06:32:10.228Z,11.00
2023-03-31T06:34:39.996Z,11.00
2023-03-31T06:37:10.696Z,11.10
2023-03-31T06:39:37.748Z,11.10
2023-03-31T06:42:04.466Z,11.20
2023-03-31T06:44:38.820Z,11.30
2023-03-31T06:47:05.977Z,11.40
2023-03-31T06:49:32.959Z,11.40
2023-03-31T06:51:59.920Z,11.50
2023-03-31T06:54:26.882Z,11.60
2023-03-31T06:56:53.810Z,11.60
2023-03-31T06:59:20.662Z,11.70
2023-03-31T07:01:50.549Z,11.70
2023-03-31T07:04:17.501Z,11.80
2023-03-31T07:06:44.397Z,11.90
2023-03-31T07:09:13.406Z,12.00
2023-03-31T07:11:40.282Z,12.00
2023-03-31T07:14:07.128Z,12.10
2023-03-31T07:16:34.102Z,12.20
2023-03-31T07:19:05.845Z,12.30
2023-03-31T07:21:32.800Z,12.40
2023-03-31T07:23:59.798Z,12.40
2023-03-31T07:26:27.086Z,12.50
2023-03-31T07:28:57.342Z,12.60
2023-03-31T07:31:24.336Z,12.70
2023-03-31T07:33:51.455Z,12.70
2023-03-31T07:36:21.586Z,12.70
2023-03-31T07:38:49.673Z,12.80
2023-03-31T07:41:20.155Z,12.80
2023-03-31T07:43:50.588Z,12.90
2023-03-31T07:46:27.914Z,12.90
2023-03-31T07:49:02.013Z,13.00
2023-03-31T07:51:32.298Z,13.10
2023-03-31T07:54:01.627Z,13.30
2023-03-31T07:56:28.507Z,13.50
2023-03-31T07:58:57.798Z,13.80
2023-03-31T08:01:25.983Z,14.00
2023-03-31T08:03:57.339Z,14.40
2023-03-31T08:06:25.643Z,14.50
2023-03-31T08:08:52.514Z,14.50
2023-03-31T08:11:21.303Z,14.60
2023-03-31T08:13:48.363Z,15.10
2023-03-31T08:16:17.475Z,16.10
2023-03-31T08:18:44.355Z,16.70
2023-03-31T08:21:11.316Z,16.80
2023-03-31T08:23:38.194Z,16.70
2023-03-31T08:26:16.385Z,17.20
2023-03-31T08:28:45.857Z,17.80
2023-03-31T08:31:18.666Z,18.60
2023-03-31T08:33:46.677Z,19.50
2023-03-31T08:36:14.115Z,19.40
2023-03-31T08:38:48.027Z,19.10
2023-03-31T08:41:46.818Z,18.40
2023-03-31T08:44:26.043Z,17.60
2023-03-31T08:46:54.762Z,17.60
2023-03-31T08:49:23.063Z,17.80
2023-03-31T08:52:04.990Z,17.80
2023-03-31T08:54:35.974Z,17.40
2023-03-31T08:57:05.519Z,16.90
2023-03-31T08:59:33.848Z,16.60
2023-03-31T09:02:21.506Z,16.60
2023-03-31T09:05:12.759Z,16.50
2023-03-31T09:07:53.954Z,16.50
2023-03-31T09:10:44.459Z,17.30
2023-03-31T09:13:50.844Z,19.50
2023-03-31T09:16:25.521Z,21.70
2023-03-31T09:19:00.569Z,23.30
2023-03-31T09:21:43.301Z,23.20
2023-03-31T09:24:33.366Z,21.90
2023-03-31T09:27:07.041Z,21.40
2023-03-31T09:29:55.819Z,22.00
2023-03-31T09:32:28.251Z,22.10
2023-03-31T09:35:01.783Z,21.00
2023-03-31T09:37:33.216Z,20.30
2023-03-31T09:40:07.379Z,19.80
2023-03-31T09:42:38.666Z,18.90
2023-03-31T09:45:06.418Z,18.30
2023-03-31T09:47:42.826Z,18.00
2023-03-31T09:50:14.387Z,17.80
2023-03-31T09:52:52.249Z,19.00
2023-03-31T09:55:38.426Z,20.70
2023-03-31T09:58:08.651Z,20.80
2023-03-31T10:00:36.095Z,20.30
2023-03-31T10:03:07.736Z,19.60
2023-03-31T10:05:36.764Z,18.90
2023-03-31T10:08:33.997Z,18.30
2023-03-31T10:11:06.564Z,17.70
2023-03-31T10:13:52.979Z,17.20
2023-03-31T10:16:49.754Z,16.80
2023-03-31T10:19:28.942Z,16.50
2023-03-31T10:22:03.649Z,16.40
2023-03-31T10:24:44.918Z,16.90
2023-03-31T10:27:26.690Z,17.50
2023-03-31T10:30:01.797Z,17.80
2023-03-31T10:32:33.571Z,17.70
2023-03-31T10:35:27.401Z,17.40
2023-03-31T10:38:14.387Z,17.10
2023-03-31T10:40:52.691Z,16.80
2023-03-31T10:43:36.467Z,16.50
2023-03-31T10:46:04.318Z,16.20
2023-03-31T10:48:38.634Z,16.00
2023-03-31T10:51:15.095Z,15.80
2023-03-31T10:53:46.774Z,15.60
2023-03-31T10:56:35.299Z,15.80
2023-03-31T10:59:05.059Z,16.10
2023-03-31T11:01:51.975Z,16.20
2023-03-31T11:04:56.514Z,16.40
2023-03-31T11:07:35.548Z,16.50
2023-03-31T11:10:40.101Z,16.50
2023-03-31T11:13:33.911Z,16.50
2023-03-31T11:16:16.284Z,16.60
2023-03-31T11:19:14.624Z,16.80
2023-03-31T11:21:50.469Z,16.80
2023-03-31T11:24:49.833Z,16.70
2023-03-31T11:27:17.062Z,16.70
2023-03-31T11:29:50.223Z,16.60
2023-03-31T11:32:31.814Z,16.50
2023-03-31T11:35:02.724Z,16.50
2023-03-31T11:37:52.891Z,16.50
2023-03-31T11:40:38.009Z,16.50
2023-03-31T11:43:32.182Z,16.50
2023-03-31T11:46:04.398Z,16.60
2023-03-31T11:48:46.455Z,16.50
2023-03-31T11:51:54.313Z,16.40
2023-03-31T11:54:38.051Z,16.10
2023-03-31T11:57:18.354Z,15.90
2023-03-31T11:59:54.064Z,15.80
2023-03-31T12:02:31.931Z,15.70
2023-03-31T12:04:59.274Z,15.80
2023-03-31T12:07:39.631Z,15.90
2023-03-31T12:10:25.518Z,16.10
2023-03-31T12:13:26.250Z,16.30
2023-03-31T12:16:02.802Z,16.70
2023-03-31T12:19:02.438Z,16.90
2023-03-31T12:21:31.199Z,16.90
2023-03-31T12:23:58.183Z,16.90
2023-03-31T12:26:40.073Z,16.80
2023-03-31T12:29:17.962Z,16.70
2023-03-31T12:31:46.718Z,16.40
2023-03-31T12:34:16.893Z,16.10
2023-03-31T12:37:00.796Z,15.90
2023-03-31T12:40:06.055Z,15.70
2023-03-31T12:42:41.976Z,15.50
2023-03-31T12:45:21.558Z,15.20
2023-03-31T12:48:24.972Z,14.90
2023-03-31T12:51:08.055Z,14.60
2023-03-31T12:53:57.110Z,14.50
2023-03-31T12:56:24.971Z,14.30
2023-03-31T12:58:54.046Z,14.20
2023-03-31T13:01:23.033Z,14.10
2023-03-31T13:04:18.224Z,14.00
2023-03-31T13:06:49.019Z,13.90
2023-03-31T13:09:17.886Z,13.80
2023-03-31T13:11:48.969Z,13.80
2023-03-31T13:14:31.629Z,13.80
2023-03-31T13:17:28.102Z,13.80
2023-03-31T13:19:55.734Z,13.70
2023-03-31T13:22:43.385Z,13.60
2023-03-31T13:25:29.007Z,13.50
2023-03-31T13:27:56.616Z,13.40
2023-03-31T13:30:35.674Z,13.30
2023-03-31T13:33:09.998Z,13.20
2023-03-31T13:35:40.010Z,13.10
2023-03-31T13:38:18.292Z,13.00
2023-03-31T13:41:03.945Z,12.90
2023-03-31T13:43:43.741Z,12.80
2023-03-31T13:46:11.431Z,12.80
2023-03-31T13:49:03.442Z,12.70
2023-03-31T13:51:47.037Z,12.60
2023-03-31T13:54:34.028Z,12.60
2023-03-31T13:57:19.772Z,12.60
2023-03-31T13:59:46.832Z,12.60
2023-03-31T14:02:19.780Z,12.60
2023-03-31T14:05:05.251Z,12.50
2023-03-31T14:07:34.649Z,12.40
2023-03-31T14:10:02.910Z,12.40
2023-03-31T14:12:32.774Z,12.40
2023-03-31T14:14:59.633Z,12.40
2023-03-31T14:17:28.338Z,12.50
2023-03-31T14:20:10.587Z,12.40
2023-03-31T14:22:49.360Z,12.50
2023-03-31T14:25:19.723Z,12.50
2023-03-31T14:27:55.385Z,12.60
2023-03-31T14:30:29.444Z,12.50
2023-03-31T14:33:10.203Z,12.50
2023-03-31T14:35:42.930Z,12.50
2023-03-31T14:38:19.612Z,12.40
2023-03-31T14:40:47.998Z,12.40
2023-03-31T14:43:19.955Z,12.40
2023-03-31T14:45:46.729Z,12.40
2023-03-31T14:48:14.905Z,12.40
2023-03-31T14:50:42.933Z,12.40
2023-03-31T14:53:16.736Z,12.40
2023-03-31T14:58:24.020Z,12.40
2023-03-31T15:00:52.106Z,12.40
2023-03-31T15:03:19.034Z,12.30
2023-03-31T15:05:48.928Z,12.30
2023-03-31T15:08:20.132Z,12.30
2023-03-31T15:10:54.065Z,12.40
2023-03-31T15:13:34.730Z,12.40
2023-03-31T15:16:19.764Z,12.40
2023-03-31T15:18:49.870Z,12.40
2023-03-31T15:21:24.283Z,12.40
2023-03-31T15:23:55.841Z,12.40
2023-03-31T15:26:40.330Z,12.40
2023-03-31T15:29:11.740Z,12.40
2023-03-31T15:31:40.985Z,12.40
2023-03-31T15:34:30.846Z,12.30
2023-03-31T15:36:57.864Z,12.40
2023-03-31T15:39:32.723Z,12.30
2023-03-31T15:42:01.283Z,12.30
2023-03-31T15:44:31.276Z,12.30
2023-03-31T15:46:59.490Z,12.30
2023-03-31T15:49:26.519Z,12.30
2023-03-31T15:51:55.791Z,12.30
2023-03-31T15:54:39.854Z,12.30
2023-03-31T15:57:14.766Z,12.40
2023-03-31T15:59:55.169Z,12.40
2023-03-31T16:02:46.336Z,12.40
2023-03-31T16:05:53.587Z,12.40
2023-03-31T16:08:39.357Z,12.40
2023-03-31T16:11:13.502Z,12.40
2023-03-31T16:13:44.487Z,12.40
2023-03-31T16:16:13.513Z,12.40
2023-03-31T16:18:43.638Z,12.30
2023-03-31T16:21:16.366Z,12.30
2023-03-31T16:23:45.312Z,12.40
2023-03-31T16:26:13.130Z,12.40
2023-03-31T16:28:54.058Z,12.30
2023-03-31T16:31:34.214Z,12.30
2023-03-31T16:34:02.601Z,12.30
2023-03-31T16:36:29.588Z,12.30
2023-03-31T16:38:59.646Z,12.30
2023-03-31T16:41:29.095Z,12.20
2023-03-31T16:43:56.000Z,12.20
2023-03-31T16:46:24.251Z,12.20
2023-03-31T16:48:52.498Z,12.20
2023-03-31T16:51:20.173Z,12.20
2023-03-31T16:53:47.344Z,12.20
2023-03-31T16:56:14.472Z,12.20
2023-03-31T16:58:41.544Z,12.20
2023-03-31T17:01:09.657Z,12.10
2023-03-31T17:03:41.808Z,12.10
2023-03-31T17:06:11.205Z,12.10
2023-03-31T17:08:39.411Z,12.10
2023-03-31T17:11:08.050Z,12.10
2023-03-31T17:13:34.801Z,12.10
2023-03-31T17:16:13.205Z,12.00
2023-03-31T17:18:44.545Z,12.00
2023-03-31T17:21:12.158Z,12.00
2023-03-31T17:23:39.352Z,12.00
2023-03-31T17:26:09.499Z,12.00
2023-03-31T17:28:38.656Z,11.90
2023-03-31T17:31:13.300Z,11.90
2023-03-31T17:33:40.492Z,11.90
2023-03-31T17:36:07.743Z,11.90
2023-03-31T17:38:34.777Z,11.90
2023-03-31T17:41:07.359Z,11.90
2023-03-31T17:43:35.358Z,11.90
2023-03-31T17:46:04.248Z,11.90
2023-03-31T17:48:31.544Z,11.90
2023-03-31T17:50:59.413Z,11.80
2023-03-31T17:53:26.150Z,11.80
2023-03-31T17:55:54.544Z,11.80
2023-03-31T17:58:22.549Z,11.80
2023-03-31T18:00:49.315Z,11.80
2023-03-31T18:03:16.165Z,11.80
2023-03-31T18:05:43.308Z,11.80
2023-03-31T18:08:12.714Z,11.80
2023-03-31T18:10:41.130Z,11.80
2023-03-31T18:13:08.334Z,11.80
2023-03-31T18:15:35.526Z,11.80
2023-03-31T18:18:02.327Z,11.80
2023-03-31T18:20:32.638Z,11.80
2023-03-31T18:23:00.194Z,11.80
2023-03-31T18:25:27.187Z,11.80
2023-03-31T18:27:54.141Z,11.90
2023-03-31T18:30:20.934Z,11.90
2023-03-31T18:32:47.896Z,11.80
2023-03-31T18:35:19.982Z,11.90
2023-03-31T18:37:46.955Z,11.90
2023-03-31T18:40:18.811Z,11.90
2023-03-31T18:42:45.858Z,11.90
2023-03-31T18:45:12.748Z,11.80
2023-03-31T18:47:40.043Z,11.90
2023-03-31T18:50:10.499Z,11.80
2023-03-31T18:52:37.401Z,11.90
2023-03-31T18:55:04.811Z,11.90
2023-03-31T18:57:32.357Z,11.80
2023-03-31T18:59:59.520Z,11.80
2023-03-31T19:02:26.680Z,11.80
2023-03-31T19:04:55.890Z,11.80
2023-03-31T19:07:22.840Z,11.80
2023-03-31T19:09:52.413Z,11.80
2023-03-31T19:12:19.579Z,11.80
2023-03-31T19:14:46.440Z,11.80
2023-03-31T19:17:13.595Z,11.80
2023-03-31T19:19:40.631Z,11.80
2023-03-31T19:22:07.670Z,11.80
2023-03-31T19:24:34.538Z,11.80
2023-03-31T19:27:04.790Z,11.80
2023-03-31T19:29:32.757Z,11.80
2023-03-31T19:31:59.798Z,11.80
2023-03-31T19:34:27.146Z,11.80
2023-03-31T19:36:56.663Z,11.80
2023-03-31T19:39:28.186Z,11.80
2023-03-31T19:41:57.399Z,11.70
2023-03-31T19:44:24.334Z,11.70
2023-03-31T19:46:51.272Z,11.70
2023-03-31T19:49:18.780Z,11.70
2023-03-31T19:51:46.228Z,11.70
2023-03-31T19:54:13.333Z,11.70
2023-03-31T19:56:40.286Z,11.70
2023-03-31T19:59:07.545Z,11.70
2023-03-31T20:01:34.905Z,11.70
2023-03-31T20:04:02.152Z,11.80
2023-03-31T20:06:30.775Z,11.70
2023-03-31T20:09:00.329Z,11.70
2023-03-31T20:11:29.685Z,11.70
2023-03-31T20:13:57.219Z,11.70
2023-03-31T20:16:27.983Z,11.70
2023-03-31T20:19:06.147Z,11.60
2023-03-31T20:21:35.682Z,11.60
2023-03-31T20:24:02.931Z,11.60
2023-03-31T20:26:31.119Z,11.60
2023-03-31T20:28:59.254Z,11.60
2023-03-31T20:31:31.324Z,11.70
2023-03-31T20:33:58.505Z,11.60
2023-03-31T20:36:31.451Z,11.60
2023-03-31T20:39:00.204Z,11.60
2023-03-31T20:41:31.106Z,11.60
2023-03-31T20:43:58.108Z,11.60
2023-03-31T20:46:28.074Z,11.60
2023-03-31T20:49:00.850Z,11.60
2023-03-31T20:51:32.518Z,11.50
2023-03-31T20:54:01.289Z,11.50
2023-03-31T20:56:31.833Z,11.50
2023-03-31T20:58:59.928Z,11.50
2023-03-31T21:01:33.422Z,11.50
2023-03-31T21:04:01.661Z,11.40
2023-03-31T21:06:32.573Z,11.40
2023-03-31T21:08:59.741Z,11.40
2023-03-31T21:11:30.155Z,11.30
2023-03-31T21:13:57.030Z,11.30
2023-03-31T21:16:26.341Z,11.30
2023-03-31T21:18:55.047Z,11.30
2023-03-31T21:21:24.849Z,11.30
2023-03-31T21:23:51.929Z,11.20
2023-03-31T21:26:18.921Z,11.20
2023-03-31T21:28:46.049Z,11.20
2023-03-31T21:31:14.478Z,11.20
2023-03-31T21:33:42.029Z,11.20
2023-03-31T21:36:10.243Z,11.20
2023-03-31T21:38:37.179Z,11.20
2023-03-31T21:41:04.674Z,11.20
2023-03-31T21:43:31.956Z,11.20
2023-03-31T21:45:59.169Z,11.10
2023-03-31T21:48:29.638Z,11.10
2023-03-31T21:51:00.301Z,11.10
2023-03-31T21:53:28.687Z,11.10
2023-03-31T21:55:56.454Z,11.00
2023-03-31T21:58:25.272Z,11.00
2023-03-31T22:00:52.583Z,11.00
2023-03-31T22:03:27.115Z,11.00
2023-03-31T22:05:57.340Z,11.00
2023-03-31T22:08:27.317Z,11.00
2023-03-31T22:10:55.071Z,11.00
2023-03-31T22:13:22.418Z,11.00
2023-03-31T22:15:49.294Z,11.00
2023-03-31T22:18:17.063Z,11.00
2023-03-31T22:20:47.202Z,11.00
2023-03-31T22:23:14.939Z,11.00
2023-03-31T22:25:41.752Z,10.90
2023-03-31T22:28:09.285Z,10.90
2023-03-31T22:30:36.726Z,10.90
2023-03-31T22:33:05.799Z,10.90
2023-03-31T22:35:32.701Z,11.00
2023-03-31T22:37:59.665Z,10.90
2023-03-31T22:40:29.000Z,10.90
2023-03-31T22:42:58.513Z,10.90
2023-03-31T22:45:25.454Z,10.90
2023-03-31T22:47:52.354Z,10.90
2023-03-31T22:50:23.894Z,10.90
2023-03-31T22:52:50.879Z,10.90
2023-03-31T22:55:17.626Z,10.90
2023-03-31T22:57:47.056Z,10.80
2023-03-31T23:00:13.995Z,10.80
2023-03-31T23:02:41.331Z,10.80
2023-03-31T23:05:08.305Z,10.80
2023-03-31T23:07:35.062Z,10.80
2023-03-31T23:10:04.391Z,10.80
2023-03-31T23:12:36.791Z,10.80
2023-03-31T23:15:03.856Z,10.80
2023-03-31T23:17:33.323Z,10.80
2023-03-31T23:20:00.585Z,10.80
2023-03-31T23:22:27.395Z,10.80
2023-03-31T23:24:54.153Z,10.80
2023-03-31T23:27:20.996Z,10.80
2023-03-31T23:29:47.848Z,10.80
2023-03-31T23:32:14.668Z,10.80
2023-03-31T23:34:41.938Z,10.80
2023-03-31T23:37:13.071Z,10.80
2023-03-31T23:39:42.456Z,10.80
2023-03-31T23:42:09.838Z,10.80
2023-03-31T23:44:41.502Z,10.80
2023-03-31T23:47:08.446Z,10.80
2023-03-31T23:49:35.652Z,10.80
2023-03-31T23:52:04.958Z,10.80
2023-03-31T23:54:31.673Z,10.80
2023-03-31T23:56:58.442Z,10.80
2023-03-31T23:59:27.662Z,10.70
